createdAt,value
2023-03-25T00:01:10.409Z,1.13
2023-03-25T00:07:15.757Z,1.25
2023-03-25T00:13:19.175Z,0.95
2023-03-25T00:19:22.590Z,1.35
2023-03-25T00:25:27.433Z,1.20
2023-03-25T00:31:30.860Z,1.48
2023-03-25T00:37:34.251Z,1.10
2023-03-25T00:43:39.105Z,1.80
2023-03-25T00:49:42.786Z,1.60
2023-03-25T00:55:46.269Z,1.77
2023-03-25T01:01:53.353Z,1.50
2023-03-25T01:07:56.900Z,1.83
2023-03-25T01:14:00.982Z,1.83
2023-03-25T01:20:08.797Z,0.93
2023-03-25T01:26:13.117Z,2.00
2023-03-25T01:32:16.846Z,1.85
2023-03-25T01:38:22.391Z,1.25
2023-03-25T01:44:44.535Z,1.98
2023-03-25T01:50:50.514Z,1.35
2023-03-25T01:56:56.059Z,2.22
2023-03-25T02:03:01.437Z,2.13
2023-03-25T02:09:09.108Z,2.10
2023-03-25T02:15:14.375Z,1.27
2023-03-25T02:21:46.432Z,2.10
2023-03-25T02:27:59.168Z,1.38
2023-03-25T02:34:16.029Z,1.60
2023-03-25T02:40:22.934Z,1.65
2023-03-25T02:46:28.032Z,1.05
2023-03-25T02:52:33.693Z,1.38
2023-03-25T02:58:39.496Z,1.48
2023-03-25T03:04:47.133Z,0.90
2023-03-25T03:10:52.940Z,1.20
2023-03-25T03:17:03.868Z,1.02
2023-03-25T03:23:11.134Z,1.35
2023-03-25T03:29:16.495Z,1.58
2023-03-25T03:35:24.606Z,0.70
2023-03-25T03:41:29.257Z,1.13
2023-03-25T03:47:34.949Z,1.10
2023-03-25T03:53:42.073Z,1.23
2023-03-25T03:59:49.564Z,1.05
2023-03-25T04:05:55.286Z,1.20
2023-03-25T04:12:02.768Z,0.98
2023-03-25T04:18:06.273Z,1.42
2023-03-25T04:24:09.644Z,1.50
2023-03-25T04:30:17.626Z,1.25
2023-03-25T04:36:22.738Z,1.73
2023-03-25T04:42:33.126Z,1.33
2023-03-25T04:48:41.623Z,1.75
2023-03-25T04:54:46.433Z,1.80
2023-03-25T05:00:50.999Z,1.55
2023-03-25T05:06:56.944Z,1.92
2023-03-25T05:13:01.056Z,1.30
2023-03-25T05:19:06.684Z,1.50
2023-03-25T05:25:12.098Z,1.52
2023-03-25T05:31:15.537Z,2.80
2023-03-25T05:37:19.195Z,2.05
2023-03-25T05:43:24.580Z,1.85
2023-03-25T05:49:28.065Z,1.63
2023-03-25T05:55:31.603Z,1.90
2023-03-25T06:01:37.552Z,1.58
2023-03-25T06:07:42.874Z,1.92
2023-03-25T06:13:49.711Z,2.30
2023-03-25T06:19:54.497Z,1.88
2023-03-25T06:25:58.728Z,2.55
2023-03-25T06:32:02.245Z,2.70
2023-03-25T06:38:07.188Z,2.90
2023-03-25T06:44:10.724Z,1.70
2023-03-25T06:50:14.200Z,2.75
2023-03-25T06:56:19.062Z,2.38
2023-03-25T07:02:22.439Z,2.17
2023-03-25T07:08:26.123Z,2.72
2023-03-25T07:14:30.986Z,2.47
2023-03-25T07:20:34.434Z,2.00
2023-03-25T07:26:38.037Z,2.85
2023-03-25T07:32:42.853Z,2.70
2023-03-25T07:38:46.298Z,2.92
2023-03-25T07:44:49.685Z,2.42
2023-03-25T07:50:54.573Z,3.40
2023-03-25T07:56:58.965Z,2.70
2023-03-25T08:03:03.646Z,2.53
2023-03-25T08:09:08.797Z,2.20
2023-03-25T08:15:12.964Z,1.52
2023-03-25T08:21:17.398Z,2.13
2023-03-25T08:27:22.148Z,2.00
2023-03-25T08:33:27.680Z,2.30
2023-03-25T08:39:37.085Z,2.15
2023-03-25T08:45:41.922Z,2.00
2023-03-25T08:51:45.524Z,3.10
2023-03-25T08:57:48.908Z,2.95
2023-03-25T09:03:55.816Z,2.17
2023-03-25T09:09:59.232Z,2.22
2023-03-25T09:16:02.712Z,2.00
2023-03-25T09:22:07.736Z,2.05
2023-03-25T09:28:11.192Z,2.75
2023-03-25T09:34:16.053Z,2.95
2023-03-25T09:40:21.940Z,1.80
2023-03-25T09:46:25.967Z,2.25
2023-03-25T09:52:31.042Z,2.30
2023-03-25T09:58:42.556Z,2.30
2023-03-25T10:04:51.716Z,1.70
2023-03-25T10:11:00.207Z,2.35
2023-03-25T10:17:11.556Z,1.40
2023-03-25T10:23:18.198Z,2.08
2023-03-25T10:29:22.255Z,1.90
2023-03-25T10:35:29.893Z,2.42
2023-03-25T10:41:35.574Z,2.20
2023-03-25T10:47:39.546Z,1.45
2023-03-25T10:53:47.312Z,2.17
2023-03-25T10:59:57.084Z,1.92
2023-03-25T11:06:00.584Z,1.85
2023-03-25T11:12:06.906Z,2.05
2023-03-25T11:18:14.084Z,1.83
2023-03-25T11:24:20.420Z,1.67
2023-03-25T11:30:26.000Z,1.40
2023-03-25T11:36:30.582Z,2.85
2023-03-25T11:42:35.311Z,1.10
2023-03-25T11:48:41.409Z,2.08
2023-03-25T11:54:44.983Z,1.60
2023-03-25T12:00:49.739Z,2.08
2023-03-25T12:06:59.024Z,1.80
2023-03-25T12:13:04.030Z,2.28
2023-03-25T12:19:13.454Z,2.20
2023-03-25T12:25:26.403Z,2.45
2023-03-25T12:31:35.203Z,1.70
2023-03-25T12:37:46.466Z,1.83
2023-03-25T12:43:58.544Z,2.30
2023-03-25T12:50:09.368Z,2.10
2023-03-25T12:56:23.385Z,2.05
2023-03-25T13:02:36.015Z,1.48
2023-03-25T13:08:42.468Z,2.03
2023-03-25T13:14:51.953Z,1.30
2023-03-25T13:21:05.014Z,1.63
2023-03-25T13:27:15.805Z,1.58
2023-03-25T13:33:21.957Z,1.92
2023-03-25T13:39:27.947Z,1.60
2023-03-25T13:45:33.394Z,1.70
2023-03-25T13:51:36.856Z,1.70
2023-03-25T13:57:47.631Z,1.70
2023-03-25T14:04:09.447Z,1.65
2023-03-25T14:10:42.786Z,2.15
2023-03-25T14:16:49.179Z,2.15
2023-03-25T14:22:57.293Z,2.33
2023-03-25T14:29:05.061Z,1.83
2023-03-25T14:35:27.232Z,1.75
2023-03-25T14:41:49.391Z,2.30
2023-03-25T14:47:55.385Z,1.50
2023-03-25T14:54:02.175Z,1.80
2023-03-25T15:00:13.714Z,1.70
2023-03-25T15:06:19.111Z,2.17
2023-03-25T15:12:25.297Z,1.35
2023-03-25T15:18:49.551Z,5.35
2023-03-25T15:24:56.173Z,4.47
2023-03-25T15:31:04.948Z,3.55
2023-03-25T15:37:19.866Z,4.22
2023-03-25T15:43:39.247Z,4.00
2023-03-25T15:50:02.268Z,2.60
2023-03-25T15:56:09.708Z,3.78
2023-03-25T16:02:23.905Z,5.28
2023-03-25T16:08:30.235Z,5.35
2023-03-25T16:14:34.416Z,3.17
2023-03-25T16:20:39.459Z,9.38
2023-03-25T16:26:43.853Z,5.82
2023-03-25T16:32:47.254Z,5.63
2023-03-25T16:38:52.155Z,5.97
2023-03-25T16:44:57.771Z,6.13
2023-03-25T16:51:03.019Z,6.90
2023-03-25T16:57:09.658Z,4.07
2023-03-25T17:03:15.627Z,4.93
2023-03-25T17:09:19.932Z,4.40
2023-03-25T17:15:25.086Z,3.63
2023-03-25T17:21:30.267Z,4.43
2023-03-25T17:27:36.142Z,3.10
2023-03-25T17:33:48.708Z,5.80
2023-03-25T17:39:52.953Z,3.92
2023-03-25T17:45:56.362Z,4.25
2023-03-25T17:52:01.315Z,7.22
2023-03-25T17:58:05.155Z,3.85
2023-03-25T18:04:08.557Z,4.38
2023-03-25T18:10:18.509Z,3.65
2023-03-25T18:16:22.685Z,3.95
2023-03-25T18:22:26.482Z,3.80
2023-03-25T18:28:31.710Z,3.67
2023-03-25T18:34:35.666Z,3.87
2023-03-25T18:40:39.249Z,3.38
2023-03-25T18:46:44.540Z,3.35
2023-03-25T18:52:47.959Z,3.15
2023-03-25T18:58:51.469Z,3.97
2023-03-25T19:05:01.174Z,3.50
2023-03-25T19:11:19.172Z,4.32
2023-03-25T19:17:24.111Z,3.17
2023-03-25T19:23:29.129Z,4.00
2023-03-25T19:29:32.753Z,3.83
2023-03-25T19:35:36.174Z,3.53
2023-03-25T19:41:42.835Z,3.22
2023-03-25T19:47:46.821Z,3.20
2023-03-25T19:53:50.251Z,3.20
2023-03-25T19:59:55.270Z,4.20
2023-03-25T20:05:58.863Z,3.90
2023-03-25T20:12:02.944Z,4.25
2023-03-25T20:18:07.935Z,3.65
2023-03-25T20:24:11.651Z,3.45
2023-03-25T20:30:16.037Z,3.55
2023-03-25T20:36:21.620Z,4.35
2023-03-25T20:42:25.085Z,4.10
2023-03-25T20:48:28.713Z,4.70
2023-03-25T20:54:33.915Z,3.85
2023-03-25T21:00:37.470Z,3.60
2023-03-25T21:06:42.023Z,3.67
2023-03-25T21:12:47.256Z,3.70
2023-03-25T21:18:51.368Z,4.72
2023-03-25T21:24:54.834Z,4.78
2023-03-25T21:31:04.574Z,3.50
2023-03-25T21:37:08.152Z,4.38
2023-03-25T21:43:11.744Z,3.42
2023-03-25T21:49:16.528Z,3.80
2023-03-25T21:55:22.786Z,4.20
2023-03-25T22:01:29.710Z,3.10
2023-03-25T22:07:34.772Z,4.05
2023-03-25T22:13:38.380Z,3.97
2023-03-25T22:19:42.471Z,3.75
2023-03-25T22:25:47.343Z,3.05
2023-03-25T22:31:50.957Z,3.13
2023-03-25T22:37:55.489Z,3.33
2023-03-25T22:44:00.710Z,3.25
2023-03-25T22:50:04.394Z,2.58
2023-03-25T22:56:08.434Z,3.28
2023-03-25T23:02:14.650Z,4.18
2023-03-25T23:08:18.074Z,3.28
2023-03-25T23:14:21.499Z,3.25
2023-03-25T23:20:28.024Z,3.38
2023-03-25T23:26:34.917Z,3.10
2023-03-25T23:32:39.880Z,2.88
2023-03-25T23:38:46.432Z,3.42
2023-03-25T23:44:49.904Z,4.70
2023-03-25T23:50:54.043Z,2.53
2023-03-25T23:56:58.960Z,3.17
